createdAt,value
2023-12-30T00:00:29.125Z,45.58
2023-12-30T00:02:56.023Z,45.10
2023-12-30T00:05:25.360Z,43.10
2023-12-30T00:07:52.233Z,47.50
2023-12-30T00:10:19.177Z,40.53
2023-12-30T00:15:13.154Z,36.92
2023-12-30T00:17:40.070Z,40.83
2023-12-30T00:20:07.723Z,35.13
2023-12-30T00:22:34.579Z,35.80
2023-12-30T00:25:01.424Z,34.05
2023-12-30T00:27:28.234Z,33.30
2023-12-30T00:29:55.076Z,31.70
2023-12-30T00:32:21.932Z,29.55
2023-12-30T00:34:48.745Z,28.90
2023-12-30T00:37:20.303Z,32.33
2023-12-30T00:39:48.304Z,31.05
2023-12-30T00:42:15.176Z,29.52
2023-12-30T00:44:42.093Z,29.08
2023-12-30T00:47:08.900Z,30.20
2023-12-30T00:49:35.752Z,35.13
2023-12-30T00:52:02.813Z,34.63
2023-12-30T00:54:35.345Z,37.30
2023-12-30T00:57:07.655Z,31.65
2023-12-30T00:59:35.053Z,36.00
2023-12-30T01:02:01.994Z,39.35
2023-12-30T01:06:55.821Z,44.90
2023-12-30T01:11:49.469Z,47.60
2023-12-30T01:14:16.300Z,47.95
2023-12-30T01:16:43.081Z,49.40
2023-12-30T01:19:10.002Z,44.30
2023-12-30T01:21:36.796Z,46.35
2023-12-30T01:24:03.742Z,50.00
2023-12-30T01:26:30.583Z,43.75
2023-12-30T01:28:57.372Z,46.65
2023-12-30T01:31:24.376Z,49.80
2023-12-30T01:36:18.293Z,49.88
2023-12-30T01:41:11.931Z,44.67
2023-12-30T01:43:39.223Z,50.67
2023-12-30T01:46:08.569Z,48.78
2023-12-30T01:48:36.312Z,46.20
2023-12-30T01:51:04.188Z,45.00
2023-12-30T01:53:39.366Z,45.38
2023-12-30T01:56:07.158Z,52.08
2023-12-30T01:58:35.558Z,54.25
2023-12-30T02:01:05.158Z,50.97
2023-12-30T02:03:32.139Z,52.20
2023-12-30T02:05:59.550Z,51.15
2023-12-30T02:08:27.422Z,50.13
2023-12-30T02:10:54.373Z,54.70
2023-12-30T02:13:21.279Z,49.80
2023-12-30T02:15:48.123Z,49.47
2023-12-30T02:18:15.021Z,45.15
2023-12-30T02:20:41.889Z,51.67
2023-12-30T02:23:08.725Z,47.63
2023-12-30T02:25:36.060Z,51.50
2023-12-30T02:28:03.073Z,45.40
2023-12-30T02:32:58.857Z,46.35
2023-12-30T02:35:26.107Z,43.80
2023-12-30T02:37:53.088Z,43.05
2023-12-30T02:42:46.963Z,48.55
2023-12-30T02:45:13.971Z,38.63
2023-12-30T02:47:41.002Z,39.63
2023-12-30T02:50:08.547Z,38.88
2023-12-30T02:52:35.654Z,39.72
2023-12-30T02:55:04.407Z,39.67
2023-12-30T02:57:31.303Z,36.60
2023-12-30T02:59:58.416Z,51.63
2023-12-30T03:02:25.263Z,47.42
2023-12-30T03:04:53.296Z,51.45
2023-12-30T03:07:20.420Z,46.50
2023-12-30T03:12:16.081Z,49.65
2023-12-30T03:14:43.019Z,54.75
2023-12-30T03:17:09.877Z,50.80
2023-12-30T03:19:36.821Z,49.20
2023-12-30T03:22:03.846Z,52.08
2023-12-30T03:26:57.433Z,52.45
2023-12-30T03:29:24.255Z,53.42
2023-12-30T03:31:53.159Z,48.92
2023-12-30T03:34:20.560Z,55.20
2023-12-30T03:36:47.975Z,53.35
2023-12-30T03:39:15.283Z,50.83
2023-12-30T03:41:42.083Z,40.80
2023-12-30T03:44:08.907Z,37.75
2023-12-30T03:46:35.774Z,39.58
2023-12-30T03:49:02.854Z,34.60
2023-12-30T03:51:29.826Z,39.83
2023-12-30T03:53:56.759Z,39.35
2023-12-30T03:56:23.604Z,36.85
2023-12-30T03:58:50.397Z,36.60
2023-12-30T04:01:17.403Z,36.35
2023-12-30T04:03:44.245Z,36.53
2023-12-30T04:06:19.526Z,39.53
2023-12-30T04:08:46.391Z,39.67
2023-12-30T04:11:13.697Z,36.38
2023-12-30T04:13:40.778Z,37.97
2023-12-30T04:16:08.945Z,36.63
2023-12-30T04:18:35.760Z,34.58
2023-12-30T04:21:02.602Z,36.92
2023-12-30T04:23:29.491Z,38.50
2023-12-30T04:25:56.370Z,40.28
2023-12-30T04:28:23.246Z,38.10
2023-12-30T04:30:50.177Z,36.78
2023-12-30T04:33:17.194Z,40.40
2023-12-30T04:35:44.222Z,42.50
2023-12-30T04:38:11.272Z,41.03
2023-12-30T04:43:05.427Z,40.60
2023-12-30T04:45:32.442Z,39.90
2023-12-30T04:47:59.445Z,43.03
2023-12-30T04:52:53.580Z,41.75
2023-12-30T04:55:20.484Z,38.35
2023-12-30T04:57:49.038Z,40.78
2023-12-30T05:00:19.880Z,43.28
2023-12-30T05:02:47.724Z,39.38
2023-12-30T05:05:14.709Z,34.97
2023-12-30T05:07:41.647Z,37.03
2023-12-30T05:10:11.179Z,42.50
2023-12-30T05:12:38.600Z,40.60
2023-12-30T05:15:06.070Z,40.72
2023-12-30T05:17:33.822Z,40.30
2023-12-30T05:20:00.896Z,40.00
2023-12-30T05:22:27.967Z,39.28
2023-12-30T05:27:22.330Z,40.78
2023-12-30T05:29:49.280Z,39.58
2023-12-30T05:32:16.173Z,37.88
2023-12-30T05:34:43.073Z,36.35
2023-12-30T05:37:09.985Z,38.83
2023-12-30T05:39:37.063Z,38.42
2023-12-30T05:44:31.018Z,39.95
2023-12-30T05:46:57.821Z,39.22
2023-12-30T05:49:24.810Z,33.22
2023-12-30T05:54:18.686Z,37.72
2023-12-30T05:56:45.623Z,40.58
2023-12-30T05:59:12.433Z,34.80
2023-12-30T06:01:46.861Z,37.28
2023-12-30T06:04:15.409Z,36.85
2023-12-30T06:06:44.044Z,36.80
2023-12-30T06:09:11.003Z,41.30
2023-12-30T06:11:37.895Z,38.55
2023-12-30T06:14:05.088Z,36.47
2023-12-30T06:16:32.061Z,33.72
2023-12-30T06:21:25.961Z,37.78
2023-12-30T06:23:52.770Z,33.63
2023-12-30T06:26:19.637Z,35.08
2023-12-30T06:28:46.662Z,35.63
2023-12-30T06:33:41.376Z,35.25
2023-12-30T06:36:08.802Z,35.22
2023-12-30T06:38:36.714Z,41.35
2023-12-30T06:41:07.638Z,36.63
2023-12-30T06:43:34.485Z,37.10
2023-12-30T06:46:05.202Z,37.85
2023-12-30T06:48:32.315Z,36.25
2023-12-30T06:53:31.821Z,37.28
2023-12-30T06:56:05.352Z,41.28
2023-12-30T06:58:32.237Z,44.95
2023-12-30T07:00:59.165Z,40.83
2023-12-30T07:05:53.011Z,41.60
2023-12-30T07:10:46.606Z,35.97
2023-12-30T07:13:14.011Z,35.00
2023-12-30T07:15:40.862Z,33.80
2023-12-30T07:18:08.121Z,37.88
2023-12-30T07:20:36.819Z,36.92
2023-12-30T07:23:05.807Z,36.90
2023-12-30T07:25:33.368Z,36.05
2023-12-30T07:28:00.469Z,37.47
2023-12-30T07:32:54.392Z,35.50
2023-12-30T07:37:48.569Z,33.50
2023-12-30T07:40:16.088Z,36.20
2023-12-30T07:42:43.036Z,38.85
2023-12-30T07:45:10.269Z,35.42
2023-12-30T07:47:37.825Z,37.92
2023-12-30T07:50:06.338Z,36.47
2023-12-30T07:52:33.567Z,37.28
2023-12-30T07:55:00.510Z,37.20
2023-12-30T07:57:28.008Z,38.45
2023-12-30T07:59:56.497Z,41.30
2023-12-30T08:02:23.409Z,36.22
2023-12-30T08:04:50.383Z,36.45
2023-12-30T08:09:44.902Z,36.65
2023-12-30T08:12:12.796Z,35.78
2023-12-30T08:14:39.639Z,34.72
2023-12-30T08:17:06.544Z,38.20
2023-12-30T08:19:33.394Z,37.65
2023-12-30T08:22:00.411Z,35.03
2023-12-30T08:26:56.713Z,37.78
2023-12-30T08:29:23.561Z,37.83
2023-12-30T08:31:50.760Z,51.80
2023-12-30T08:34:17.779Z,38.40
2023-12-30T08:39:12.184Z,37.30
2023-12-30T08:41:42.277Z,37.92
2023-12-30T08:44:09.401Z,40.63
2023-12-30T08:46:36.929Z,37.60
2023-12-30T08:49:06.488Z,45.15
2023-12-30T08:51:35.766Z,42.85
2023-12-30T08:54:03.022Z,48.20
2023-12-30T08:56:34.801Z,42.60
2023-12-30T08:59:02.216Z,42.13
2023-12-30T09:01:29.468Z,43.78
2023-12-30T09:03:56.767Z,42.60
2023-12-30T09:06:23.841Z,44.75
2023-12-30T09:08:50.877Z,48.47
2023-12-30T09:11:21.737Z,45.85
2023-12-30T09:13:52.988Z,51.63
2023-12-30T09:16:20.489Z,52.80
2023-12-30T09:18:47.715Z,48.65
2023-12-30T09:21:14.773Z,49.22
2023-12-30T09:26:09.319Z,47.67
2023-12-30T09:28:36.450Z,48.05
2023-12-30T09:31:03.696Z,45.30
2023-12-30T09:33:31.560Z,43.15
2023-12-30T09:35:58.874Z,48.78
2023-12-30T09:38:26.902Z,45.97
2023-12-30T09:40:55.778Z,48.28
2023-12-30T09:43:28.011Z,44.33
2023-12-30T09:45:56.668Z,46.17
2023-12-30T09:48:27.606Z,51.88
2023-12-30T09:50:55.618Z,49.83
2023-12-30T09:53:26.069Z,56.13
2023-12-30T09:55:54.484Z,49.97
2023-12-30T09:58:22.715Z,48.67
2023-12-30T10:00:50.072Z,51.33
2023-12-30T10:03:17.344Z,48.55
2023-12-30T10:05:44.495Z,49.05
2023-12-30T10:08:11.661Z,56.95
2023-12-30T10:10:45.810Z,51.55
2023-12-30T10:13:14.301Z,51.95
2023-12-30T10:15:42.493Z,51.13
2023-12-30T10:18:09.789Z,55.75
2023-12-30T10:20:42.395Z,49.83
2023-12-30T10:23:09.501Z,53.40
2023-12-30T10:25:36.882Z,52.63
2023-12-30T10:28:04.521Z,54.90
2023-12-30T10:30:32.218Z,52.05
2023-12-30T10:33:14.767Z,55.88
2023-12-30T10:35:45.756Z,56.92
2023-12-30T10:38:14.549Z,57.40
2023-12-30T10:40:42.334Z,54.22
2023-12-30T10:43:10.462Z,49.88
2023-12-30T10:45:38.539Z,55.17
2023-12-30T10:48:07.985Z,54.63
2023-12-30T10:50:40.164Z,56.90
2023-12-30T10:53:16.145Z,55.25
2023-12-30T10:55:51.846Z,60.80
2023-12-30T10:58:23.758Z,54.03
2023-12-30T11:00:57.312Z,56.22
2023-12-30T11:03:25.912Z,58.28
2023-12-30T11:06:16.300Z,57.03
2023-12-30T11:08:45.299Z,49.35
2023-12-30T11:11:15.701Z,54.88
2023-12-30T11:13:43.355Z,58.50
2023-12-30T11:16:14.967Z,53.25
2023-12-30T11:18:50.840Z,60.58
2023-12-30T11:21:51.989Z,55.95
2023-12-30T11:24:19.474Z,54.85
2023-12-30T11:26:47.666Z,53.67
2023-12-30T11:29:18.339Z,51.50
2023-12-30T11:31:47.281Z,51.20
2023-12-30T11:34:16.756Z,54.28
2023-12-30T11:36:44.851Z,52.90
2023-12-30T11:39:16.033Z,49.15
2023-12-30T11:41:42.829Z,45.60
2023-12-30T11:44:09.724Z,50.80
2023-12-30T11:46:37.413Z,45.50
2023-12-30T11:49:04.717Z,46.90
2023-12-30T11:51:33.062Z,55.65
2023-12-30T11:54:05.842Z,51.28
2023-12-30T11:56:33.813Z,53.42
2023-12-30T11:59:01.786Z,49.50
2023-12-30T12:01:28.816Z,50.80
2023-12-30T12:03:56.225Z,55.72
2023-12-30T12:06:23.250Z,48.20
2023-12-30T12:11:17.520Z,58.95
2023-12-30T12:13:44.544Z,51.75
2023-12-30T12:16:12.237Z,54.92
2023-12-30T12:18:39.174Z,52.30
2023-12-30T12:23:40.926Z,53.28
2023-12-30T12:26:08.247Z,49.85
2023-12-30T12:28:35.319Z,54.05
2023-12-30T12:31:03.466Z,57.70
2023-12-30T12:33:30.965Z,51.05
2023-12-30T12:35:58.244Z,44.17
2023-12-30T12:38:25.405Z,44.15
2023-12-30T12:40:52.575Z,47.65
2023-12-30T12:43:19.833Z,49.28
2023-12-30T12:45:46.841Z,46.90
2023-12-30T12:50:41.489Z,46.08
2023-12-30T12:55:35.393Z,49.53
2023-12-30T13:00:31.414Z,53.67
2023-12-30T13:03:00.404Z,51.85
2023-12-30T13:05:28.036Z,56.55
2023-12-30T13:10:21.823Z,53.65
2023-12-30T13:12:50.415Z,45.90
2023-12-30T13:15:19.114Z,51.58
2023-12-30T13:17:46.036Z,49.42
2023-12-30T13:20:13.524Z,48.17
2023-12-30T13:22:40.414Z,51.30
2023-12-30T13:27:38.030Z,55.00
2023-12-30T13:32:32.586Z,49.33
2023-12-30T13:35:00.030Z,49.03
2023-12-30T13:37:26.942Z,48.88
2023-12-30T13:42:25.281Z,50.72
2023-12-30T13:44:53.157Z,48.38
2023-12-30T13:47:25.798Z,45.92
2023-12-30T13:50:19.564Z,47.38
2023-12-30T13:52:48.406Z,46.25
2023-12-30T13:55:18.056Z,44.95
2023-12-30T13:57:46.173Z,46.97
2023-12-30T14:00:15.497Z,46.00
2023-12-30T14:02:44.668Z,48.00
2023-12-30T14:05:19.996Z,54.58
2023-12-30T14:07:47.239Z,46.10
2023-12-30T14:10:19.415Z,50.13
2023-12-30T14:12:47.129Z,49.53
2023-12-30T14:15:14.882Z,53.63
2023-12-30T14:17:44.071Z,55.10
2023-12-30T14:20:11.901Z,53.03
2023-12-30T14:22:39.128Z,53.63
2023-12-30T14:25:06.402Z,49.55
2023-12-30T14:27:37.009Z,52.65
2023-12-30T14:30:07.476Z,50.88
2023-12-30T14:32:35.138Z,52.20
2023-12-30T14:35:02.794Z,49.42
2023-12-30T14:37:30.314Z,47.70
2023-12-30T14:39:57.416Z,50.08
2023-12-30T14:42:25.544Z,47.67
2023-12-30T14:44:52.849Z,48.00
2023-12-30T14:47:20.859Z,49.20
2023-12-30T14:49:47.886Z,54.17
2023-12-30T14:52:15.007Z,53.90
2023-12-30T14:57:09.267Z,51.25
2023-12-30T15:02:03.703Z,51.42
2023-12-30T15:04:30.607Z,51.78
2023-12-30T15:09:24.346Z,49.30
2023-12-30T15:14:18.368Z,49.47
2023-12-30T15:16:45.353Z,48.25
2023-12-30T15:19:12.622Z,47.33
2023-12-30T15:21:42.060Z,53.45
2023-12-30T15:24:08.905Z,46.67
2023-12-30T15:26:35.762Z,49.65
2023-12-30T15:31:30.314Z,50.17
2023-12-30T15:33:57.318Z,54.15
2023-12-30T15:36:24.356Z,56.20
2023-12-30T15:38:51.334Z,53.05
2023-12-30T15:41:22.214Z,55.22
2023-12-30T15:43:49.316Z,57.78
2023-12-30T15:46:16.213Z,53.92
2023-12-30T15:51:09.922Z,52.78
2023-12-30T15:53:38.078Z,52.47
2023-12-30T15:56:05.791Z,54.70
2023-12-30T15:58:33.066Z,55.95
2023-12-30T16:01:00.179Z,55.97
2023-12-30T16:03:27.331Z,51.50
2023-12-30T16:05:54.625Z,54.63
2023-12-30T16:08:21.885Z,57.33
2023-12-30T16:10:51.015Z,55.63
2023-12-30T16:13:19.578Z,57.33
2023-12-30T16:15:51.034Z,55.40
2023-12-30T16:18:20.841Z,55.88
2023-12-30T16:20:47.778Z,58.00
2023-12-30T16:25:42.660Z,56.88
2023-12-30T16:30:39.361Z,56.63
2023-12-30T16:33:06.783Z,57.78
2023-12-30T16:35:33.884Z,60.08
2023-12-30T16:38:00.821Z,54.30
2023-12-30T16:42:56.034Z,54.03
2023-12-30T16:45:22.910Z,57.78
2023-12-30T16:50:16.739Z,56.28
2023-12-30T16:55:12.483Z,58.13
2023-12-30T16:57:39.633Z,55.15
2023-12-30T17:00:10.319Z,62.55
2023-12-30T17:02:38.063Z,57.55
2023-12-30T17:05:06.473Z,60.42
2023-12-30T17:07:38.684Z,59.72
2023-12-30T17:10:11.135Z,63.80
2023-12-30T17:12:38.200Z,58.00
2023-12-30T17:15:05.611Z,58.97
2023-12-30T17:17:32.942Z,62.50
2023-12-30T17:19:59.823Z,59.33
2023-12-30T17:22:27.380Z,58.50
2023-12-30T17:24:54.221Z,64.47
2023-12-30T17:27:21.160Z,58.08
2023-12-30T17:32:16.765Z,56.55
2023-12-30T17:34:44.899Z,59.65
2023-12-30T17:37:11.993Z,59.38
2023-12-30T17:39:39.020Z,55.03
2023-12-30T17:44:33.693Z,58.88
2023-12-30T17:47:00.613Z,60.28
2023-12-30T17:51:56.714Z,68.65
2023-12-30T17:54:28.019Z,64.57
2023-12-30T17:56:54.943Z,61.15
2023-12-30T17:59:21.824Z,70.22
2023-12-30T18:01:50.004Z,64.13
2023-12-30T18:04:16.985Z,61.42
2023-12-30T18:09:12.336Z,69.85
2023-12-30T18:11:39.141Z,58.63
2023-12-30T18:14:09.999Z,58.05
2023-12-30T18:16:36.971Z,64.10
2023-12-30T18:19:04.171Z,62.42
2023-12-30T18:21:31.302Z,61.30
2023-12-30T18:26:26.510Z,57.05
2023-12-30T18:28:55.586Z,61.55
2023-12-30T18:31:22.523Z,60.42
2023-12-30T18:33:49.885Z,60.38
2023-12-30T18:36:16.940Z,61.35
2023-12-30T18:38:43.857Z,64.13
2023-12-30T18:43:44.560Z,60.42
2023-12-30T18:46:11.599Z,60.17
2023-12-30T18:51:13.599Z,58.33
2023-12-30T18:53:40.625Z,67.63
2023-12-30T18:56:15.896Z,61.00
2023-12-30T18:58:52.471Z,57.75
2023-12-30T19:01:19.805Z,61.33
2023-12-30T19:03:46.870Z,60.58
2023-12-30T19:08:45.142Z,58.50
2023-12-30T19:13:39.430Z,61.92
2023-12-30T19:16:06.447Z,63.92
2023-12-30T19:21:00.410Z,66.47
2023-12-30T19:25:54.273Z,65.63
2023-12-30T19:30:48.157Z,62.88
2023-12-30T19:35:44.429Z,65.35
2023-12-30T19:38:11.798Z,61.67
2023-12-30T19:40:46.094Z,64.63
2023-12-30T19:43:14.625Z,66.75
2023-12-30T19:45:43.520Z,65.32
2023-12-30T19:48:10.429Z,63.88
2023-12-30T19:53:05.418Z,61.78
2023-12-30T19:55:33.111Z,64.07
2023-12-30T19:58:00.001Z,63.70
2023-12-30T20:00:27.569Z,67.20
2023-12-30T20:02:54.890Z,68.35
2023-12-30T20:05:24.964Z,64.03
2023-12-30T20:07:51.902Z,69.55
2023-12-30T20:10:20.714Z,63.85
2023-12-30T20:12:50.702Z,66.50
2023-12-30T20:15:25.849Z,66.13
2023-12-30T20:17:52.809Z,69.68
2023-12-30T20:20:19.771Z,65.05
2023-12-30T20:25:14.576Z,65.72
2023-12-30T20:30:13.304Z,63.33
2023-12-30T20:32:41.272Z,63.60
2023-12-30T20:35:08.376Z,62.90
2023-12-30T20:37:35.226Z,65.00
2023-12-30T20:40:02.158Z,61.63
2023-12-30T20:42:30.371Z,63.08
2023-12-30T20:44:57.518Z,65.03
2023-12-30T20:49:51.518Z,63.17
2023-12-30T20:52:21.197Z,64.75
2023-12-30T20:54:48.190Z,62.90
2023-12-30T20:59:43.785Z,61.83
2023-12-30T21:02:10.682Z,68.55
2023-12-30T21:04:38.729Z,67.75
2023-12-30T21:07:05.795Z,63.92
2023-12-30T21:12:06.554Z,65.13
2023-12-30T21:14:34.280Z,64.68
2023-12-30T21:17:02.552Z,63.90
2023-12-30T21:19:32.625Z,64.68
2023-12-30T21:21:59.871Z,65.72
2023-12-30T21:24:26.889Z,64.50
2023-12-30T21:26:54.098Z,62.08
2023-12-30T21:29:22.900Z,68.03
2023-12-30T21:31:51.420Z,64.82
2023-12-30T21:34:18.684Z,69.60
2023-12-30T21:36:46.112Z,67.93
2023-12-30T21:39:13.838Z,72.35
2023-12-30T21:41:40.925Z,71.15
2023-12-30T21:46:42.808Z,69.43
2023-12-30T21:49:09.930Z,69.53
2023-12-30T21:51:37.917Z,74.68
2023-12-30T21:54:04.791Z,72.60
2023-12-30T21:58:58.725Z,75.90
2023-12-30T22:01:25.680Z,70.75
2023-12-30T22:06:19.336Z,74.65
2023-12-30T22:08:46.178Z,75.93
2023-12-30T22:11:13.075Z,77.90
2023-12-30T22:13:39.913Z,73.57
2023-12-30T22:16:06.987Z,74.35
2023-12-30T22:18:35.304Z,68.80
2023-12-30T22:21:02.182Z,75.68
2023-12-30T22:23:29.132Z,79.07
2023-12-30T22:28:22.708Z,71.80
2023-12-30T22:30:49.726Z,75.97
2023-12-30T22:35:43.546Z,71.00
2023-12-30T22:38:10.355Z,74.20
2023-12-30T22:40:37.233Z,71.45
2023-12-30T22:43:04.542Z,73.10
2023-12-30T22:45:31.749Z,73.20
2023-12-30T22:47:58.589Z,74.63
2023-12-30T22:50:25.479Z,72.43
2023-12-30T22:52:52.344Z,71.00
2023-12-30T22:55:19.255Z,74.40
2023-12-30T22:57:46.219Z,86.20
2023-12-30T23:00:15.098Z,74.05
2023-12-30T23:02:41.933Z,70.20
2023-12-30T23:05:09.880Z,69.60
2023-12-30T23:07:36.946Z,73.53
2023-12-30T23:12:30.703Z,63.50
2023-12-30T23:14:57.499Z,69.40
2023-12-30T23:17:25.637Z,67.07
2023-12-30T23:19:52.596Z,64.95
2023-12-30T23:22:19.490Z,67.75
2023-12-30T23:24:47.037Z,68.57
2023-12-30T23:27:14.345Z,69.18
2023-12-30T23:29:41.259Z,68.20
2023-12-30T23:32:08.423Z,67.05
2023-12-30T23:34:42.921Z,68.63
2023-12-30T23:37:15.883Z,73.05
2023-12-30T23:39:45.615Z,67.05
2023-12-30T23:42:13.072Z,63.80
2023-12-30T23:47:06.953Z,64.43
2023-12-30T23:49:33.816Z,66.78
2023-12-30T23:52:00.770Z,69.10
2023-12-30T23:54:27.632Z,67.32
2023-12-30T23:56:54.493Z,64.55
2023-12-30T23:59:21.485Z,67.53
